sensor_id;sensor_type;location;lat;lon;timestamp;P1;durP1;ratioP1;P2;durP2;ratioP2
65558;SDS011;52203;51.998;5.140;2022-12-29T00:00:03;2.50;;;1.42;;
65558;SDS011;52203;51.998;5.140;2022-12-29T00:02:30;2.92;;;1.60;;
65558;SDS011;52203;51.998;5.140;2022-12-29T00:04:56;2.55;;;1.35;;
65558;SDS011;52203;51.998;5.140;2022-12-29T00:07:21;3.25;;;1.58;;
65558;SDS011;52203;51.998;5.140;2022-12-29T00:09:47;2.45;;;1.40;;
65558;SDS011;52203;51.998;5.140;2022-12-29T00:12:12;2.53;;;1.38;;
65558;SDS011;52203;51.998;5.140;2022-12-29T00:14:38;2.90;;;1.50;;
65558;SDS011;52203;51.998;5.140;2022-12-29T00:19:47;2.42;;;1.30;;
65558;SDS011;52203;51.998;5.140;2022-12-29T00:25:15;2.88;;;1.40;;
65558;SDS011;52203;51.998;5.140;2022-12-29T00:27:59;4.00;;;1.55;;
65558;SDS011;52203;51.998;5.140;2022-12-29T00:33:31;1.95;;;1.20;;
65558;SDS011;52203;51.998;5.140;2022-12-29T00:36:32;3.60;;;1.42;;
65558;SDS011;52203;51.998;5.140;2022-12-29T00:39:07;1.88;;;1.35;;
65558;SDS011;52203;51.998;5.140;2022-12-29T00:41:55;1.95;;;1.33;;
65558;SDS011;52203;51.998;5.140;2022-12-29T00:44:39;2.75;;;1.40;;
65558;SDS011;52203;51.998;5.140;2022-12-29T00:47:05;3.47;;;1.50;;
65558;SDS011;52203;51.998;5.140;2022-12-29T00:49:31;3.20;;;1.40;;
65558;SDS011;52203;51.998;5.140;2022-12-29T00:52:07;2.10;;;1.20;;
65558;SDS011;52203;51.998;5.140;2022-12-29T00:54:36;2.97;;;1.20;;
65558;SDS011;52203;51.998;5.140;2022-12-29T00:57:04;3.03;;;1.30;;
65558;SDS011;52203;51.998;5.140;2022-12-29T00:59:31;2.10;;;1.20;;
65558;SDS011;52203;51.998;5.140;2022-12-29T01:01:57;1.98;;;1.20;;
65558;SDS011;52203;51.998;5.140;2022-12-29T01:04:24;1.98;;;1.45;;
65558;SDS011;52203;51.998;5.140;2022-12-29T01:06:50;1.85;;;1.17;;
65558;SDS011;52203;51.998;5.140;2022-12-29T01:09:17;2.55;;;1.23;;
65558;SDS011;52203;51.998;5.140;2022-12-29T01:12:02;2.72;;;1.40;;
65558;SDS011;52203;51.998;5.140;2022-12-29T01:14:28;1.98;;;1.08;;
65558;SDS011;52203;51.998;5.140;2022-12-29T01:16:54;2.58;;;1.35;;
65558;SDS011;52203;51.998;5.140;2022-12-29T01:19:21;1.63;;;1.00;;
65558;SDS011;52203;51.998;5.140;2022-12-29T01:21:47;2.03;;;1.10;;
65558;SDS011;52203;51.998;5.140;2022-12-29T01:24:13;1.33;;;1.10;;
65558;SDS011;52203;51.998;5.140;2022-12-29T01:26:40;1.48;;;1.00;;
65558;SDS011;52203;51.998;5.140;2022-12-29T01:29:06;1.90;;;0.93;;
65558;SDS011;52203;51.998;5.140;2022-12-29T01:31:31;2.35;;;1.23;;
65558;SDS011;52203;51.998;5.140;2022-12-29T01:33:57;3.60;;;1.13;;
65558;SDS011;52203;51.998;5.140;2022-12-29T01:36:23;1.25;;;0.90;;
65558;SDS011;52203;51.998;5.140;2022-12-29T01:38:49;1.33;;;0.90;;
65558;SDS011;52203;51.998;5.140;2022-12-29T01:41:15;2.83;;;1.17;;
65558;SDS011;52203;51.998;5.140;2022-12-29T01:43:54;1.33;;;0.90;;
65558;SDS011;52203;51.998;5.140;2022-12-29T01:46:41;1.85;;;1.10;;
65558;SDS011;52203;51.998;5.140;2022-12-29T01:49:12;1.17;;;0.90;;
65558;SDS011;52203;51.998;5.140;2022-12-29T01:54:34;2.22;;;1.13;;
65558;SDS011;52203;51.998;5.140;2022-12-29T01:57:07;1.30;;;0.95;;
65558;SDS011;52203;51.998;5.140;2022-12-29T01:59:41;1.40;;;0.95;;
65558;SDS011;52203;51.998;5.140;2022-12-29T02:02:10;2.45;;;1.00;;
65558;SDS011;52203;51.998;5.140;2022-12-29T02:04:38;1.83;;;1.00;;
65558;SDS011;52203;51.998;5.140;2022-12-29T02:07:10;2.42;;;1.10;;
65558;SDS011;52203;51.998;5.140;2022-12-29T02:09:41;1.80;;;0.87;;
65558;SDS011;52203;51.998;5.140;2022-12-29T02:12:08;1.65;;;0.80;;
65558;SDS011;52203;51.998;5.140;2022-12-29T02:14:35;1.98;;;0.90;;
65558;SDS011;52203;51.998;5.140;2022-12-29T02:26:11;2.03;;;1.00;;
65558;SDS011;52203;51.998;5.140;2022-12-29T02:34:24;2.38;;;0.90;;
65558;SDS011;52203;51.998;5.140;2022-12-29T02:39:26;2.15;;;0.77;;
65558;SDS011;52203;51.998;5.140;2022-12-29T02:50:17;1.95;;;0.85;;
65558;SDS011;52203;51.998;5.140;2022-12-29T02:52:51;1.10;;;0.82;;
65558;SDS011;52203;51.998;5.140;2022-12-29T02:55:17;1.73;;;0.82;;
65558;SDS011;52203;51.998;5.140;2022-12-29T02:57:43;0.98;;;0.80;;
65558;SDS011;52203;51.998;5.140;2022-12-29T03:00:12;3.28;;;0.90;;
65558;SDS011;52203;51.998;5.140;2022-12-29T03:10:34;2.08;;;1.10;;
65558;SDS011;52203;51.998;5.140;2022-12-29T03:19:04;1.13;;;0.80;;
65558;SDS011;52203;51.998;5.140;2022-12-29T03:21:55;1.08;;;0.65;;
65558;SDS011;52203;51.998;5.140;2022-12-29T03:24:43;1.00;;;0.68;;
65558;SDS011;52203;51.998;5.140;2022-12-29T03:27:14;0.93;;;0.70;;
65558;SDS011;52203;51.998;5.140;2022-12-29T03:29:47;1.23;;;0.70;;
65558;SDS011;52203;51.998;5.140;2022-12-29T03:32:19;1.08;;;0.70;;
65558;SDS011;52203;51.998;5.140;2022-12-29T03:34:47;2.00;;;0.60;;
65558;SDS011;52203;51.998;5.140;2022-12-29T03:37:16;1.85;;;0.85;;
65558;SDS011;52203;51.998;5.140;2022-12-29T03:39:45;2.67;;;0.80;;
65558;SDS011;52203;51.998;5.140;2022-12-29T03:42:15;2.05;;;0.80;;
65558;SDS011;52203;51.998;5.140;2022-12-29T03:44:44;1.17;;;0.80;;
65558;SDS011;52203;51.998;5.140;2022-12-29T03:47:11;1.00;;;0.80;;
65558;SDS011;52203;51.998;5.140;2022-12-29T03:49:39;1.15;;;0.70;;
65558;SDS011;52203;51.998;5.140;2022-12-29T03:52:05;1.13;;;0.82;;
65558;SDS011;52203;51.998;5.140;2022-12-29T03:54:30;1.88;;;0.90;;
65558;SDS011;52203;51.998;5.140;2022-12-29T03:56:56;0.85;;;0.70;;
65558;SDS011;52203;51.998;5.140;2022-12-29T03:59:22;2.53;;;0.80;;
65558;SDS011;52203;51.998;5.140;2022-12-29T04:01:48;3.67;;;0.80;;
65558;SDS011;52203;51.998;5.140;2022-12-29T04:04:13;1.10;;;0.70;;
65558;SDS011;52203;51.998;5.140;2022-12-29T04:06:39;1.58;;;0.77;;
65558;SDS011;52203;51.998;5.140;2022-12-29T04:09:05;2.20;;;0.80;;
65558;SDS011;52203;51.998;5.140;2022-12-29T04:11:31;2.08;;;0.73;;
65558;SDS011;52203;51.998;5.140;2022-12-29T04:13:56;1.40;;;0.80;;
65558;SDS011;52203;51.998;5.140;2022-12-29T04:16:22;1.35;;;0.80;;
65558;SDS011;52203;51.998;5.140;2022-12-29T04:18:47;1.65;;;0.80;;
65558;SDS011;52203;51.998;5.140;2022-12-29T04:21:13;2.33;;;0.80;;
65558;SDS011;52203;51.998;5.140;2022-12-29T04:23:39;1.83;;;0.80;;
65558;SDS011;52203;51.998;5.140;2022-12-29T04:26:05;3.45;;;0.90;;
65558;SDS011;52203;51.998;5.140;2022-12-29T04:28:32;1.67;;;0.90;;
65558;SDS011;52203;51.998;5.140;2022-12-29T04:30:58;4.00;;;2.30;;
65558;SDS011;52203;51.998;5.140;2022-12-29T04:33:24;3.10;;;0.88;;
65558;SDS011;52203;51.998;5.140;2022-12-29T04:35:50;4.43;;;0.70;;
65558;SDS011;52203;51.998;5.140;2022-12-29T04:38:19;2.45;;;0.88;;
65558;SDS011;52203;51.998;5.140;2022-12-29T04:40:45;2.72;;;0.93;;
65558;SDS011;52203;51.998;5.140;2022-12-29T04:43:11;4.30;;;0.80;;
65558;SDS011;52203;51.998;5.140;2022-12-29T04:45:38;3.22;;;0.90;;
65558;SDS011;52203;51.998;5.140;2022-12-29T04:48:07;1.83;;;0.80;;
65558;SDS011;52203;51.998;5.140;2022-12-29T04:50:33;3.25;;;0.70;;
65558;SDS011;52203;51.998;5.140;2022-12-29T04:52:58;2.67;;;0.90;;
65558;SDS011;52203;51.998;5.140;2022-12-29T04:55:24;3.83;;;0.90;;
65558;SDS011;52203;51.998;5.140;2022-12-29T04:57:49;3.17;;;0.85;;
65558;SDS011;52203;51.998;5.140;2022-12-29T05:00:15;2.10;;;0.80;;
65558;SDS011;52203;51.998;5.140;2022-12-29T05:02:40;3.38;;;1.13;;
65558;SDS011;52203;51.998;5.140;2022-12-29T05:05:06;4.13;;;1.00;;
65558;SDS011;52203;51.998;5.140;2022-12-29T05:07:32;3.47;;;0.90;;
65558;SDS011;52203;51.998;5.140;2022-12-29T05:09:58;3.30;;;1.00;;
65558;SDS011;52203;51.998;5.140;2022-12-29T05:12:24;2.00;;;0.85;;
65558;SDS011;52203;51.998;5.140;2022-12-29T05:14:50;2.70;;;0.80;;
65558;SDS011;52203;51.998;5.140;2022-12-29T05:17:15;3.53;;;1.00;;
65558;SDS011;52203;51.998;5.140;2022-12-29T05:19:41;3.83;;;0.90;;
65558;SDS011;52203;51.998;5.140;2022-12-29T05:22:06;4.57;;;0.90;;
65558;SDS011;52203;51.998;5.140;2022-12-29T05:24:32;3.22;;;0.80;;
65558;SDS011;52203;51.998;5.140;2022-12-29T05:26:57;5.30;;;0.90;;
65558;SDS011;52203;51.998;5.140;2022-12-29T05:29:23;4.32;;;0.90;;
65558;SDS011;52203;51.998;5.140;2022-12-29T05:31:48;3.90;;;0.88;;
65558;SDS011;52203;51.998;5.140;2022-12-29T05:34:14;1.83;;;0.85;;
65558;SDS011;52203;51.998;5.140;2022-12-29T05:36:39;5.18;;;0.80;;
65558;SDS011;52203;51.998;5.140;2022-12-29T05:39:05;5.10;;;0.90;;
65558;SDS011;52203;51.998;5.140;2022-12-29T05:41:32;3.65;;;0.80;;
65558;SDS011;52203;51.998;5.140;2022-12-29T05:43:59;5.50;;;0.90;;
65558;SDS011;52203;51.998;5.140;2022-12-29T05:46:25;4.30;;;0.95;;
65558;SDS011;52203;51.998;5.140;2022-12-29T05:48:51;2.67;;;0.90;;
65558;SDS011;52203;51.998;5.140;2022-12-29T05:51:16;5.95;;;0.93;;
65558;SDS011;52203;51.998;5.140;2022-12-29T05:53:42;3.67;;;1.13;;
65558;SDS011;52203;51.998;5.140;2022-12-29T05:56:07;4.20;;;1.00;;
65558;SDS011;52203;51.998;5.140;2022-12-29T05:58:33;3.83;;;0.98;;
65558;SDS011;52203;51.998;5.140;2022-12-29T06:00:59;5.80;;;1.00;;
65558;SDS011;52203;51.998;5.140;2022-12-29T06:03:24;3.42;;;0.90;;
65558;SDS011;52203;51.998;5.140;2022-12-29T06:05:50;3.72;;;1.10;;
65558;SDS011;52203;51.998;5.140;2022-12-29T06:08:15;3.40;;;0.85;;
65558;SDS011;52203;51.998;5.140;2022-12-29T06:10:41;5.18;;;1.25;;
65558;SDS011;52203;51.998;5.140;2022-12-29T06:13:06;4.68;;;1.08;;
65558;SDS011;52203;51.998;5.140;2022-12-29T06:15:32;5.15;;;1.00;;
65558;SDS011;52203;51.998;5.140;2022-12-29T06:17:58;5.70;;;1.00;;
65558;SDS011;52203;51.998;5.140;2022-12-29T06:20:24;3.67;;;1.33;;
65558;SDS011;52203;51.998;5.140;2022-12-29T06:22:49;7.30;;;1.20;;
65558;SDS011;52203;51.998;5.140;2022-12-29T06:25:15;2.95;;;0.98;;
65558;SDS011;52203;51.998;5.140;2022-12-29T06:27:41;3.53;;;0.90;;
65558;SDS011;52203;51.998;5.140;2022-12-29T06:30:07;2.15;;;0.90;;
65558;SDS011;52203;51.998;5.140;2022-12-29T06:32:34;5.07;;;1.20;;
65558;SDS011;52203;51.998;5.140;2022-12-29T06:35:00;4.18;;;0.98;;
65558;SDS011;52203;51.998;5.140;2022-12-29T06:37:26;4.25;;;0.95;;
65558;SDS011;52203;51.998;5.140;2022-12-29T06:39:52;5.93;;;1.15;;
65558;SDS011;52203;51.998;5.140;2022-12-29T06:42:17;4.28;;;0.90;;
65558;SDS011;52203;51.998;5.140;2022-12-29T06:44:43;6.40;;;1.25;;
65558;SDS011;52203;51.998;5.140;2022-12-29T06:47:08;6.05;;;1.35;;
65558;SDS011;52203;51.998;5.140;2022-12-29T06:49:34;5.10;;;1.00;;
65558;SDS011;52203;51.998;5.140;2022-12-29T06:52:00;4.53;;;0.80;;
65558;SDS011;52203;51.998;5.140;2022-12-29T06:54:29;2.88;;;0.85;;
65558;SDS011;52203;51.998;5.140;2022-12-29T06:56:54;7.13;;;1.95;;
65558;SDS011;52203;51.998;5.140;2022-12-29T06:59:20;5.07;;;0.90;;
65558;SDS011;52203;51.998;5.140;2022-12-29T07:01:46;5.07;;;0.98;;
65558;SDS011;52203;51.998;5.140;2022-12-29T07:04:11;4.90;;;1.10;;
65558;SDS011;52203;51.998;5.140;2022-12-29T07:06:37;4.05;;;0.90;;
65558;SDS011;52203;51.998;5.140;2022-12-29T07:09:02;5.82;;;1.27;;
65558;SDS011;52203;51.998;5.140;2022-12-29T07:11:28;2.92;;;0.90;;
65558;SDS011;52203;51.998;5.140;2022-12-29T07:13:53;2.72;;;0.70;;
65558;SDS011;52203;51.998;5.140;2022-12-29T07:16:19;3.63;;;1.00;;
65558;SDS011;52203;51.998;5.140;2022-12-29T07:18:45;3.45;;;0.90;;
65558;SDS011;52203;51.998;5.140;2022-12-29T07:21:10;2.80;;;0.90;;
65558;SDS011;52203;51.998;5.140;2022-12-29T07:23:36;2.63;;;0.90;;
65558;SDS011;52203;51.998;5.140;2022-12-29T07:26:06;3.10;;;0.93;;
65558;SDS011;52203;51.998;5.140;2022-12-29T07:28:34;6.00;;;1.23;;
65558;SDS011;52203;51.998;5.140;2022-12-29T07:31:00;4.57;;;0.95;;
65558;SDS011;52203;51.998;5.140;2022-12-29T07:33:30;4.32;;;1.05;;
65558;SDS011;52203;51.998;5.140;2022-12-29T07:35:56;2.03;;;1.00;;
65558;SDS011;52203;51.998;5.140;2022-12-29T07:38:22;6.20;;;1.27;;
65558;SDS011;52203;51.998;5.140;2022-12-29T07:40:47;3.25;;;0.90;;
65558;SDS011;52203;51.998;5.140;2022-12-29T07:43:13;3.63;;;1.13;;
65558;SDS011;52203;51.998;5.140;2022-12-29T07:45:39;3.80;;;1.00;;
65558;SDS011;52203;51.998;5.140;2022-12-29T07:48:05;2.97;;;0.80;;
65558;SDS011;52203;51.998;5.140;2022-12-29T07:50:33;4.30;;;1.35;;
65558;SDS011;52203;51.998;5.140;2022-12-29T07:52:59;2.88;;;1.00;;
65558;SDS011;52203;51.998;5.140;2022-12-29T07:55:25;3.33;;;0.90;;
65558;SDS011;52203;51.998;5.140;2022-12-29T07:57:52;3.92;;;1.08;;
65558;SDS011;52203;51.998;5.140;2022-12-29T08:00:19;1.73;;;0.90;;
65558;SDS011;52203;51.998;5.140;2022-12-29T08:02:45;3.55;;;0.95;;
65558;SDS011;52203;51.998;5.140;2022-12-29T08:05:10;5.82;;;1.20;;
65558;SDS011;52203;51.998;5.140;2022-12-29T08:07:36;5.32;;;2.30;;
65558;SDS011;52203;51.998;5.140;2022-12-29T08:10:02;4.38;;;0.90;;
65558;SDS011;52203;51.998;5.140;2022-12-29T08:12:28;3.30;;;0.98;;
65558;SDS011;52203;51.998;5.140;2022-12-29T08:14:54;5.40;;;1.35;;
65558;SDS011;52203;51.998;5.140;2022-12-29T08:17:19;4.97;;;1.10;;
65558;SDS011;52203;51.998;5.140;2022-12-29T08:19:45;2.40;;;1.02;;
65558;SDS011;52203;51.998;5.140;2022-12-29T08:22:13;4.35;;;1.10;;
65558;SDS011;52203;51.998;5.140;2022-12-29T08:24:39;6.68;;;1.30;;
65558;SDS011;52203;51.998;5.140;2022-12-29T08:27:05;4.22;;;0.85;;
65558;SDS011;52203;51.998;5.140;2022-12-29T08:29:31;7.85;;;1.40;;
65558;SDS011;52203;51.998;5.140;2022-12-29T08:31:56;4.85;;;1.00;;
65558;SDS011;52203;51.998;5.140;2022-12-29T08:34:22;3.08;;;1.35;;
65558;SDS011;52203;51.998;5.140;2022-12-29T08:36:47;3.13;;;0.95;;
65558;SDS011;52203;51.998;5.140;2022-12-29T08:39:13;3.80;;;0.90;;
65558;SDS011;52203;51.998;5.140;2022-12-29T08:41:39;5.68;;;1.30;;
65558;SDS011;52203;51.998;5.140;2022-12-29T08:44:04;7.38;;;1.73;;
65558;SDS011;52203;51.998;5.140;2022-12-29T08:46:30;6.05;;;1.17;;
65558;SDS011;52203;51.998;5.140;2022-12-29T08:48:56;4.60;;;1.05;;
65558;SDS011;52203;51.998;5.140;2022-12-29T08:51:22;5.70;;;1.30;;
65558;SDS011;52203;51.998;5.140;2022-12-29T08:53:47;4.18;;;1.10;;
65558;SDS011;52203;51.998;5.140;2022-12-29T08:56:13;4.03;;;1.00;;
65558;SDS011;52203;51.998;5.140;2022-12-29T08:58:38;4.32;;;1.10;;
65558;SDS011;52203;51.998;5.140;2022-12-29T09:01:04;4.55;;;1.10;;
65558;SDS011;52203;51.998;5.140;2022-12-29T09:03:30;5.32;;;1.23;;
65558;SDS011;52203;51.998;5.140;2022-12-29T09:05:55;4.90;;;1.25;;
65558;SDS011;52203;51.998;5.140;2022-12-29T09:08:21;4.72;;;1.02;;
65558;SDS011;52203;51.998;5.140;2022-12-29T09:10:47;6.07;;;1.52;;
65558;SDS011;52203;51.998;5.140;2022-12-29T09:13:14;3.55;;;1.00;;
65558;SDS011;52203;51.998;5.140;2022-12-29T09:15:40;4.18;;;1.17;;
65558;SDS011;52203;51.998;5.140;2022-12-29T09:18:06;3.47;;;0.93;;
65558;SDS011;52203;51.998;5.140;2022-12-29T09:20:33;3.22;;;0.90;;
65558;SDS011;52203;51.998;5.140;2022-12-29T09:22:59;3.45;;;0.93;;
65558;SDS011;52203;51.998;5.140;2022-12-29T09:25:25;4.15;;;0.90;;
65558;SDS011;52203;51.998;5.140;2022-12-29T09:27:51;4.07;;;1.08;;
65558;SDS011;52203;51.998;5.140;2022-12-29T09:30:18;7.55;;;1.13;;
65558;SDS011;52203;51.998;5.140;2022-12-29T09:32:46;4.07;;;1.10;;
65558;SDS011;52203;51.998;5.140;2022-12-29T09:35:13;6.28;;;1.00;;
65558;SDS011;52203;51.998;5.140;2022-12-29T09:37:39;5.43;;;0.98;;
65558;SDS011;52203;51.998;5.140;2022-12-29T09:40:05;6.15;;;1.10;;
65558;SDS011;52203;51.998;5.140;2022-12-29T09:42:34;3.70;;;1.10;;
65558;SDS011;52203;51.998;5.140;2022-12-29T09:45:18;5.32;;;1.23;;
65558;SDS011;52203;51.998;5.140;2022-12-29T09:48:03;7.50;;;1.65;;
65558;SDS011;52203;51.998;5.140;2022-12-29T09:50:35;6.57;;;1.52;;
65558;SDS011;52203;51.998;5.140;2022-12-29T09:53:16;5.32;;;1.30;;
65558;SDS011;52203;51.998;5.140;2022-12-29T09:55:49;3.38;;;0.90;;
65558;SDS011;52203;51.998;5.140;2022-12-29T10:03:36;4.90;;;1.40;;
65558;SDS011;52203;51.998;5.140;2022-12-29T10:06:13;4.82;;;1.35;;
65558;SDS011;52203;51.998;5.140;2022-12-29T10:11:28;6.13;;;1.02;;
65558;SDS011;52203;51.998;5.140;2022-12-29T10:16:57;3.30;;;1.05;;
65558;SDS011;52203;51.998;5.140;2022-12-29T10:22:08;4.40;;;1.20;;
65558;SDS011;52203;51.998;5.140;2022-12-29T10:24:57;2.75;;;0.77;;
65558;SDS011;52203;51.998;5.140;2022-12-29T10:27:27;1.30;;;0.80;;
65558;SDS011;52203;51.998;5.140;2022-12-29T10:29:56;4.57;;;1.10;;
65558;SDS011;52203;51.998;5.140;2022-12-29T10:32:30;2.00;;;0.80;;
65558;SDS011;52203;51.998;5.140;2022-12-29T10:35:03;3.88;;;0.80;;
65558;SDS011;52203;51.998;5.140;2022-12-29T10:37:48;4.60;;;1.15;;
65558;SDS011;52203;51.998;5.140;2022-12-29T10:40:43;2.80;;;0.95;;
65558;SDS011;52203;51.998;5.140;2022-12-29T10:45:53;1.85;;;1.02;;
65558;SDS011;52203;51.998;5.140;2022-12-29T10:48:25;5.63;;;1.40;;
65558;SDS011;52203;51.998;5.140;2022-12-29T10:53:23;4.95;;;1.40;;
65558;SDS011;52203;51.998;5.140;2022-12-29T10:56:25;5.90;;;1.58;;
65558;SDS011;52203;51.998;5.140;2022-12-29T10:58:55;7.80;;;1.35;;
65558;SDS011;52203;51.998;5.140;2022-12-29T11:01:25;6.90;;;1.70;;
65558;SDS011;52203;51.998;5.140;2022-12-29T11:03:58;5.97;;;1.30;;
65558;SDS011;52203;51.998;5.140;2022-12-29T11:06:30;3.75;;;1.50;;
65558;SDS011;52203;51.998;5.140;2022-12-29T11:08:57;6.57;;;1.30;;
65558;SDS011;52203;51.998;5.140;2022-12-29T11:11:27;6.10;;;1.77;;
65558;SDS011;52203;51.998;5.140;2022-12-29T11:14:02;5.22;;;1.80;;
65558;SDS011;52203;51.998;5.140;2022-12-29T11:16:29;5.85;;;1.30;;
65558;SDS011;52203;51.998;5.140;2022-12-29T11:18:57;5.97;;;1.58;;
65558;SDS011;52203;51.998;5.140;2022-12-29T11:21:36;5.13;;;1.30;;
65558;SDS011;52203;51.998;5.140;2022-12-29T11:24:27;5.13;;;1.38;;
65558;SDS011;52203;51.998;5.140;2022-12-29T11:27:07;7.90;;;1.77;;
65558;SDS011;52203;51.998;5.140;2022-12-29T11:29:40;6.22;;;1.38;;
65558;SDS011;52203;51.998;5.140;2022-12-29T11:32:52;5.72;;;1.50;;
65558;SDS011;52203;51.998;5.140;2022-12-29T11:34:59;6.53;;;1.40;;
65558;SDS011;52203;51.998;5.140;2022-12-29T11:37:29;5.15;;;1.08;;
65558;SDS011;52203;51.998;5.140;2022-12-29T11:42:37;11.43;;;1.38;;
65558;SDS011;52203;51.998;5.140;2022-12-29T11:45:16;5.40;;;1.40;;
65558;SDS011;52203;51.998;5.140;2022-12-29T11:47:45;4.18;;;1.23;;
65558;SDS011;52203;51.998;5.140;2022-12-29T11:50:21;7.70;;;1.35;;
65558;SDS011;52203;51.998;5.140;2022-12-29T11:53:01;6.00;;;1.40;;
65558;SDS011;52203;51.998;5.140;2022-12-29T11:55:30;8.32;;;1.80;;
65558;SDS011;52203;51.998;5.140;2022-12-29T11:57:57;14.98;;;2.08;;
65558;SDS011;52203;51.998;5.140;2022-12-29T12:00:27;8.85;;;1.85;;
65558;SDS011;52203;51.998;5.140;2022-12-29T12:06:19;22.23;;;5.80;;
65558;SDS011;52203;51.998;5.140;2022-12-29T12:08:36;23.17;;;3.38;;
65558;SDS011;52203;51.998;5.140;2022-12-29T12:11:17;26.60;;;3.53;;
65558;SDS011;52203;51.998;5.140;2022-12-29T12:13:59;20.95;;;3.90;;
65558;SDS011;52203;51.998;5.140;2022-12-29T12:16:36;16.40;;;3.05;;
65558;SDS011;52203;51.998;5.140;2022-12-29T12:22:07;16.48;;;4.13;;
65558;SDS011;52203;51.998;5.140;2022-12-29T12:35:42;12.30;;;3.10;;
65558;SDS011;52203;51.998;5.140;2022-12-29T12:41:21;21.08;;;4.57;;
65558;SDS011;52203;51.998;5.140;2022-12-29T12:51:52;29.40;;;6.13;;
65558;SDS011;52203;51.998;5.140;2022-12-29T13:00:11;25.80;;;5.70;;
65558;SDS011;52203;51.998;5.140;2022-12-29T13:11:01;20.90;;;4.13;;
65558;SDS011;52203;51.998;5.140;2022-12-29T13:19:41;63.97;;;9.85;;
65558;SDS011;52203;51.998;5.140;2022-12-29T13:22:21;58.05;;;7.90;;
65558;SDS011;52203;51.998;5.140;2022-12-29T13:27:43;47.78;;;6.40;;
65558;SDS011;52203;51.998;5.140;2022-12-29T13:33:29;37.83;;;5.65;;
65558;SDS011;52203;51.998;5.140;2022-12-29T13:36:22;31.98;;;5.15;;
65558;SDS011;52203;51.998;5.140;2022-12-29T13:39:01;27.42;;;5.47;;
65558;SDS011;52203;51.998;5.140;2022-12-29T13:41:43;17.17;;;4.05;;
65558;SDS011;52203;51.998;5.140;2022-12-29T13:44:28;17.77;;;3.17;;
65558;SDS011;52203;51.998;5.140;2022-12-29T13:47:02;18.35;;;3.60;;
65558;SDS011;52203;51.998;5.140;2022-12-29T13:49:36;14.63;;;3.42;;
65558;SDS011;52203;51.998;5.140;2022-12-29T13:52:11;14.07;;;3.42;;
65558;SDS011;52203;51.998;5.140;2022-12-29T14:00:15;11.02;;;2.90;;
65558;SDS011;52203;51.998;5.140;2022-12-29T14:07:43;10.65;;;2.40;;
65558;SDS011;52203;51.998;5.140;2022-12-29T14:10:52;9.50;;;2.88;;
65558;SDS011;52203;51.998;5.140;2022-12-29T14:13:09;8.88;;;1.88;;
65558;SDS011;52203;51.998;5.140;2022-12-29T14:15:45;5.70;;;1.40;;
65558;SDS011;52203;51.998;5.140;2022-12-29T14:18:23;8.43;;;1.63;;
65558;SDS011;52203;51.998;5.140;2022-12-29T14:20:57;10.75;;;2.03;;
65558;SDS011;52203;51.998;5.140;2022-12-29T14:23:35;4.80;;;1.25;;
65558;SDS011;52203;51.998;5.140;2022-12-29T14:28:55;7.78;;;2.25;;
65558;SDS011;52203;51.998;5.140;2022-12-29T14:44:48;15.82;;;2.63;;
65558;SDS011;52203;51.998;5.140;2022-12-29T14:47:22;5.97;;;1.50;;
65558;SDS011;52203;51.998;5.140;2022-12-29T14:49:57;9.02;;;1.38;;
65558;SDS011;52203;51.998;5.140;2022-12-29T14:52:32;9.07;;;1.67;;
65558;SDS011;52203;51.998;5.140;2022-12-29T14:58:21;5.38;;;1.65;;
65558;SDS011;52203;51.998;5.140;2022-12-29T15:00:50;4.72;;;1.33;;
65558;SDS011;52203;51.998;5.140;2022-12-29T15:06:05;5.68;;;1.48;;
65558;SDS011;52203;51.998;5.140;2022-12-29T15:08:40;9.43;;;1.65;;
65558;SDS011;52203;51.998;5.140;2022-12-29T15:11:23;10.43;;;2.00;;
65558;SDS011;52203;51.998;5.140;2022-12-29T15:13:56;5.82;;;1.50;;
65558;SDS011;52203;51.998;5.140;2022-12-29T15:18:49;4.88;;;1.27;;
65558;SDS011;52203;51.998;5.140;2022-12-29T15:21:15;5.78;;;1.52;;
65558;SDS011;52203;51.998;5.140;2022-12-29T15:23:42;5.03;;;1.20;;
65558;SDS011;52203;51.998;5.140;2022-12-29T15:26:09;4.88;;;1.58;;
65558;SDS011;52203;51.998;5.140;2022-12-29T15:28:39;7.03;;;1.30;;
65558;SDS011;52203;51.998;5.140;2022-12-29T15:31:22;3.45;;;1.20;;
65558;SDS011;52203;51.998;5.140;2022-12-29T15:33:50;5.32;;;1.40;;
65558;SDS011;52203;51.998;5.140;2022-12-29T15:38:45;4.85;;;1.40;;
65558;SDS011;52203;51.998;5.140;2022-12-29T15:44:31;4.68;;;1.85;;
65558;SDS011;52203;51.998;5.140;2022-12-29T15:46:40;6.55;;;1.38;;
65558;SDS011;52203;51.998;5.140;2022-12-29T15:49:07;3.45;;;1.30;;
65558;SDS011;52203;51.998;5.140;2022-12-29T15:51:34;6.72;;;1.50;;
65558;SDS011;52203;51.998;5.140;2022-12-29T15:54:03;3.85;;;1.13;;
65558;SDS011;52203;51.998;5.140;2022-12-29T15:56:29;8.05;;;1.73;;
65558;SDS011;52203;51.998;5.140;2022-12-29T15:58:56;4.55;;;2.08;;
65558;SDS011;52203;51.998;5.140;2022-12-29T16:03:54;4.38;;;1.35;;
65558;SDS011;52203;51.998;5.140;2022-12-29T16:06:29;5.25;;;1.65;;
65558;SDS011;52203;51.998;5.140;2022-12-29T16:09:05;4.68;;;1.30;;
65558;SDS011;52203;51.998;5.140;2022-12-29T16:11:43;4.07;;;1.38;;
65558;SDS011;52203;51.998;5.140;2022-12-29T16:14:17;5.28;;;1.38;;
65558;SDS011;52203;51.998;5.140;2022-12-29T16:16:45;5.35;;;1.50;;
65558;SDS011;52203;51.998;5.140;2022-12-29T16:19:17;3.55;;;1.15;;
65558;SDS011;52203;51.998;5.140;2022-12-29T16:21:47;4.75;;;1.15;;
65558;SDS011;52203;51.998;5.140;2022-12-29T16:24:14;5.93;;;1.88;;
65558;SDS011;52203;51.998;5.140;2022-12-29T16:26:46;4.38;;;1.08;;
65558;SDS011;52203;51.998;5.140;2022-12-29T16:29:14;4.63;;;1.10;;
65558;SDS011;52203;51.998;5.140;2022-12-29T16:31:51;6.80;;;1.73;;
65558;SDS011;52203;51.998;5.140;2022-12-29T16:40:42;4.53;;;1.40;;
65558;SDS011;52203;51.998;5.140;2022-12-29T16:48:05;4.65;;;1.42;;
65558;SDS011;52203;51.998;5.140;2022-12-29T16:51:11;3.92;;;1.13;;
65558;SDS011;52203;51.998;5.140;2022-12-29T16:53:39;6.25;;;1.00;;
65558;SDS011;52203;51.998;5.140;2022-12-29T16:56:42;2.92;;;1.00;;
65558;SDS011;52203;51.998;5.140;2022-12-29T16:59:07;9.27;;;1.83;;
65558;SDS011;52203;51.998;5.140;2022-12-29T17:01:48;4.10;;;1.50;;
65558;SDS011;52203;51.998;5.140;2022-12-29T17:04:14;5.18;;;1.35;;
65558;SDS011;52203;51.998;5.140;2022-12-29T17:06:40;4.32;;;1.10;;
65558;SDS011;52203;51.998;5.140;2022-12-29T17:09:19;2.72;;;1.10;;
65558;SDS011;52203;51.998;5.140;2022-12-29T17:11:47;4.70;;;1.10;;
65558;SDS011;52203;51.998;5.140;2022-12-29T17:16:51;2.70;;;0.88;;
65558;SDS011;52203;51.998;5.140;2022-12-29T17:19:18;6.35;;;1.15;;
65558;SDS011;52203;51.998;5.140;2022-12-29T17:21:46;4.13;;;1.20;;
65558;SDS011;52203;51.998;5.140;2022-12-29T17:24:15;4.20;;;1.27;;
65558;SDS011;52203;51.998;5.140;2022-12-29T17:26:43;7.20;;;1.33;;
65558;SDS011;52203;51.998;5.140;2022-12-29T17:29:21;5.35;;;1.13;;
65558;SDS011;52203;51.998;5.140;2022-12-29T17:31:59;3.30;;;1.33;;
65558;SDS011;52203;51.998;5.140;2022-12-29T17:34:26;4.43;;;1.35;;
65558;SDS011;52203;51.998;5.140;2022-12-29T17:36:52;5.60;;;1.25;;
65558;SDS011;52203;51.998;5.140;2022-12-29T17:39:17;4.53;;;1.05;;
65558;SDS011;52203;51.998;5.140;2022-12-29T17:41:43;4.57;;;1.40;;
65558;SDS011;52203;51.998;5.140;2022-12-29T17:44:13;6.70;;;1.55;;
65558;SDS011;52203;51.998;5.140;2022-12-29T17:46:42;5.13;;;1.10;;
65558;SDS011;52203;51.998;5.140;2022-12-29T17:49:11;8.68;;;1.83;;
65558;SDS011;52203;51.998;5.140;2022-12-29T17:51:39;6.88;;;1.45;;
65558;SDS011;52203;51.998;5.140;2022-12-29T17:54:05;4.32;;;1.10;;
65558;SDS011;52203;51.998;5.140;2022-12-29T17:56:44;5.32;;;1.10;;
65558;SDS011;52203;51.998;5.140;2022-12-29T17:59:12;5.35;;;1.27;;
65558;SDS011;52203;51.998;5.140;2022-12-29T18:01:38;5.13;;;1.38;;
65558;SDS011;52203;51.998;5.140;2022-12-29T18:04:04;4.45;;;1.30;;